createdAt,value
2023-03-26T00:03:48.632Z,1155.00
2023-03-26T00:07:48.799Z,1176.00
2023-03-26T00:11:48.938Z,1194.00
2023-03-26T00:15:49.103Z,1281.00
2023-03-26T00:19:49.295Z,1271.00
2023-03-26T00:23:49.448Z,1254.00
2023-03-26T00:27:49.654Z,1219.00
2023-03-26T00:31:49.813Z,1204.00
2023-03-26T00:35:50.024Z,1198.00
2023-03-26T00:39:50.189Z,1195.00
2023-03-26T00:43:50.367Z,1210.00
2023-03-26T00:47:50.564Z,1116.00
2023-03-26T00:51:50.729Z,1185.00
2023-03-26T00:55:51.601Z,1199.00
2023-03-26T00:59:51.126Z,1250.00
2023-03-26T01:04:04.903Z,1259.00
2023-03-26T01:07:52.274Z,1308.00
2023-03-26T01:11:51.240Z,1314.00
2023-03-26T01:15:51.457Z,1364.00
2023-03-26T01:19:51.481Z,1367.00
2023-03-26T01:23:51.653Z,1431.00
2023-03-26T01:27:51.839Z,1445.00
2023-03-26T01:31:52.033Z,1425.00
2023-03-26T01:35:52.327Z,1492.00
2023-03-26T01:39:52.376Z,1495.00
2023-03-26T01:43:52.543Z,1453.00
2023-03-26T01:47:52.819Z,1280.00
2023-03-26T01:51:52.956Z,1384.00
2023-03-26T01:55:53.289Z,1363.00
2023-03-26T01:59:53.305Z,1357.00
2023-03-26T02:03:53.488Z,1357.00
2023-03-26T02:07:53.643Z,1339.00
2023-03-26T02:11:53.829Z,1431.00
2023-03-26T02:15:54.299Z,1305.00
2023-03-26T02:19:54.234Z,1309.00
2023-03-26T02:23:54.392Z,1340.00
2023-03-26T02:27:54.578Z,1207.00
2023-03-26T02:31:54.817Z,1239.00
2023-03-26T02:35:55.197Z,1243.00
2023-03-26T02:39:55.114Z,1245.00
2023-03-26T02:43:55.313Z,1335.00
2023-03-26T02:47:55.537Z,1295.00
2023-03-26T02:51:55.676Z,1262.00
2023-03-26T02:55:56.030Z,1324.00
2023-03-26T02:59:56.055Z,1294.00
2023-03-26T03:03:56.240Z,1293.00
2023-03-26T03:07:56.441Z,1382.00
2023-03-26T03:11:56.642Z,1280.00
2023-03-26T03:15:57.132Z,1358.00
2023-03-26T03:19:57.074Z,1371.00
2023-03-26T03:23:59.997Z,1401.00
2023-03-26T03:27:57.227Z,1385.00
2023-03-26T03:31:57.172Z,1343.00
2023-03-26T03:35:57.354Z,1381.00
2023-03-26T03:39:57.118Z,1411.00
2023-03-26T03:43:57.067Z,1405.00
2023-03-26T03:47:57.079Z,1409.00
2023-03-26T03:51:57.089Z,1381.00
2023-03-26T03:55:57.403Z,1389.00
2023-03-26T03:59:56.907Z,1413.00
2023-03-26T04:03:57.179Z,1390.00
2023-03-26T04:07:57.242Z,1430.00
2023-03-26T04:11:57.454Z,1446.00
2023-03-26T04:15:57.879Z,1319.00
2023-03-26T04:19:57.822Z,1435.00
2023-03-26T04:23:58.054Z,1534.00
2023-03-26T04:27:58.297Z,1479.00
2023-03-26T04:31:58.191Z,1486.00
2023-03-26T04:35:58.351Z,1475.00
2023-03-26T04:39:58.128Z,1453.00
2023-03-26T04:43:58.077Z,1375.00
2023-03-26T04:47:58.109Z,1399.00
2023-03-26T04:51:57.995Z,1376.00
2023-03-26T04:55:57.962Z,1433.00
2023-03-26T04:59:57.945Z,1444.00
2023-03-26T05:03:57.932Z,1401.00
2023-03-26T05:07:57.832Z,1392.00
2023-03-26T05:11:57.923Z,1381.00
2023-03-26T05:15:58.136Z,1377.00
2023-03-26T05:19:58.452Z,1349.00
2023-03-26T05:23:58.562Z,1329.00
2023-03-26T05:27:58.778Z,1361.00
2023-03-26T05:31:58.747Z,1335.00
2023-03-26T05:35:58.738Z,1337.00
2023-03-26T05:39:58.697Z,1308.00
2023-03-26T05:43:58.636Z,1304.00
2023-03-26T05:47:58.642Z,1324.00
2023-03-26T05:51:58.570Z,1309.00
2023-03-26T05:55:58.512Z,1290.00
2023-03-26T05:59:58.493Z,1279.00
2023-03-26T06:03:58.514Z,1255.00
2023-03-26T06:07:58.404Z,1271.00
2023-03-26T06:11:58.471Z,1236.00
2023-03-26T06:15:58.715Z,1272.00
2023-03-26T06:19:58.925Z,1260.00
2023-03-26T06:23:59.104Z,1274.00
2023-03-26T06:27:59.330Z,1284.00
2023-03-26T06:32:09.083Z,1321.00
2023-03-26T06:36:00.517Z,1332.00
2023-03-26T06:39:59.439Z,1370.00
2023-03-26T06:43:59.530Z,1359.00
2023-03-26T06:47:59.887Z,1342.00
2023-03-26T06:51:59.939Z,1327.00
2023-03-26T06:56:00.098Z,1319.00
2023-03-26T07:00:00.278Z,1337.00
2023-03-26T07:04:00.460Z,1294.00
2023-03-26T07:08:00.618Z,1305.00
2023-03-26T07:12:00.794Z,1321.00
2023-03-26T07:16:01.050Z,1352.00
2023-03-26T07:20:01.033Z,1327.00
2023-03-26T07:24:01.146Z,1332.00
2023-03-26T07:28:01.287Z,1399.00
2023-03-26T07:32:01.483Z,1328.00
2023-03-26T07:36:01.488Z,1274.00
2023-03-26T07:40:01.590Z,1286.00
2023-03-26T07:44:01.688Z,1309.00
2023-03-26T07:48:01.863Z,1276.00
2023-03-26T07:52:01.998Z,1247.00
2023-03-26T07:56:02.105Z,1334.00
2023-03-26T08:00:02.123Z,1279.00
2023-03-26T08:04:23.844Z,1215.00
2023-03-26T08:08:03.205Z,1191.00
2023-03-26T08:12:02.146Z,1258.00
2023-03-26T08:16:02.198Z,1132.00
2023-03-26T08:20:02.212Z,1117.00
2023-03-26T08:24:02.244Z,1126.00
2023-03-26T08:28:02.369Z,1073.00
2023-03-26T08:32:02.452Z,1045.00
2023-03-26T08:36:02.581Z,986.00
2023-03-26T08:40:02.669Z,949.00
2023-03-26T08:44:02.774Z,1009.00
2023-03-26T08:48:02.957Z,1017.00
2023-03-26T08:52:03.015Z,983.00
2023-03-26T08:56:03.125Z,963.00
2023-03-26T09:00:03.260Z,1105.00
2023-03-26T09:04:03.433Z,1051.00
2023-03-26T09:08:03.516Z,977.00
2023-03-26T09:12:03.572Z,953.00
2023-03-26T09:16:03.776Z,961.00
2023-03-26T09:20:03.817Z,940.00
2023-03-26T09:24:03.913Z,927.00
2023-03-26T09:28:04.025Z,851.00
2023-03-26T09:32:04.167Z,869.00
2023-03-26T09:36:04.329Z,903.00
2023-03-26T09:40:04.390Z,799.00
2023-03-26T09:44:04.604Z,814.00
2023-03-26T09:48:04.640Z,838.00
2023-03-26T09:52:04.767Z,834.00
2023-03-26T09:56:04.889Z,695.00
2023-03-26T10:00:05.002Z,771.00
2023-03-26T10:04:05.074Z,735.00
2023-03-26T10:08:05.210Z,735.00
2023-03-26T10:12:05.279Z,729.00
2023-03-26T10:16:05.416Z,778.00
2023-03-26T10:20:05.545Z,707.00
2023-03-26T10:24:05.632Z,678.00
2023-03-26T10:28:05.755Z,722.00
2023-03-26T10:32:05.856Z,665.00
2023-03-26T10:36:05.986Z,775.00
2023-03-26T10:40:06.074Z,739.00
2023-03-26T10:44:08.846Z,661.00
2023-03-26T10:48:06.181Z,622.00
2023-03-26T10:52:06.109Z,629.00
2023-03-26T10:56:06.058Z,619.00
2023-03-26T11:00:06.029Z,616.00
2023-03-26T11:04:06.013Z,635.00
2023-03-26T11:08:05.958Z,631.00
2023-03-26T11:12:26.599Z,612.00
2023-03-26T11:16:06.987Z,609.00
2023-03-26T11:20:05.845Z,621.00
2023-03-26T11:24:06.271Z,643.00
2023-03-26T11:28:05.779Z,653.00
2023-03-26T11:32:05.750Z,640.00
2023-03-26T11:36:05.869Z,641.00
2023-03-26T11:40:05.965Z,646.00
2023-03-26T11:44:06.026Z,641.00
2023-03-26T11:48:06.181Z,627.00
2023-03-26T11:52:06.186Z,638.00
2023-03-26T11:56:06.297Z,663.00
2023-03-26T12:00:06.405Z,640.00
2023-03-26T12:04:06.536Z,638.00
2023-03-26T12:08:06.589Z,652.00
2023-03-26T12:12:06.678Z,627.00
2023-03-26T12:16:06.859Z,612.00
2023-03-26T12:20:06.904Z,635.00
2023-03-26T12:24:07.149Z,604.00
2023-03-26T12:28:07.114Z,592.00
2023-03-26T12:32:07.232Z,619.00
2023-03-26T12:36:07.422Z,605.00
2023-03-26T12:40:12.918Z,590.00
2023-03-26T12:44:56.579Z,505.00
2023-03-26T12:48:08.483Z,513.00
2023-03-26T12:52:09.297Z,555.00
2023-03-26T12:56:07.338Z,596.00
2023-03-26T13:00:07.298Z,563.00
2023-03-26T13:04:07.338Z,498.00
2023-03-26T13:08:07.432Z,526.00
2023-03-26T13:12:07.599Z,511.00
2023-03-26T13:16:07.682Z,522.00
2023-03-26T13:20:07.808Z,522.00
2023-03-26T13:24:07.931Z,500.00
2023-03-26T13:28:08.029Z,523.00
2023-03-26T13:32:08.123Z,533.00
2023-03-26T13:36:22.564Z,554.00
2023-03-26T13:40:09.212Z,576.00
2023-03-26T13:44:08.165Z,552.00
2023-03-26T13:48:08.119Z,564.00
2023-03-26T13:52:08.139Z,576.00
2023-03-26T13:56:08.254Z,590.00
2023-03-26T14:00:08.371Z,569.00
2023-03-26T14:04:08.521Z,544.00
2023-03-26T14:08:08.610Z,545.00
2023-03-26T14:12:21.159Z,562.00
2023-03-26T14:16:09.656Z,521.00
2023-03-26T14:20:08.588Z,516.00
2023-03-26T14:24:08.561Z,568.00
2023-03-26T14:28:08.640Z,580.00
2023-03-26T14:32:08.743Z,605.00
2023-03-26T14:36:08.862Z,593.00
2023-03-26T14:40:08.949Z,579.00
2023-03-26T14:44:09.110Z,558.00
2023-03-26T14:48:10.027Z,549.00
2023-03-26T14:52:09.299Z,551.00
2023-03-26T14:56:09.387Z,570.00
2023-03-26T15:00:09.504Z,569.00
2023-03-26T15:04:09.633Z,592.00
2023-03-26T15:08:09.734Z,597.00
2023-03-26T15:12:12.757Z,630.00
2023-03-26T15:16:09.828Z,588.00
2023-03-26T15:20:09.828Z,613.00
2023-03-26T15:24:09.765Z,580.00
2023-03-26T15:28:09.686Z,618.00
2023-03-26T15:32:09.661Z,590.00
2023-03-26T15:36:09.742Z,638.00
2023-03-26T15:40:09.711Z,641.00
2023-03-26T15:44:24.692Z,658.00
2023-03-26T15:48:11.391Z,682.00
2023-03-26T15:52:09.540Z,735.00
2023-03-26T15:56:09.670Z,772.00
2023-03-26T16:00:09.819Z,706.00
2023-03-26T16:04:09.930Z,779.00
2023-03-26T16:08:10.038Z,764.00
2023-03-26T16:12:10.167Z,774.00
2023-03-26T16:16:10.353Z,742.00
2023-03-26T16:20:10.470Z,848.00
2023-03-26T16:24:10.612Z,954.00
2023-03-26T16:28:10.755Z,1019.00
2023-03-26T16:32:11.175Z,1000.00
2023-03-26T16:36:11.039Z,1023.00
2023-03-26T16:40:11.157Z,1066.00
2023-03-26T16:44:11.300Z,1027.00
2023-03-26T16:48:11.431Z,1004.00
2023-03-26T16:52:11.556Z,1021.00
2023-03-26T16:56:11.674Z,961.00
2023-03-26T17:00:11.836Z,982.00
2023-03-26T17:04:11.956Z,956.00
2023-03-26T17:08:12.182Z,1031.00
2023-03-26T17:12:12.181Z,1099.00
2023-03-26T17:16:12.363Z,1076.00
2023-03-26T17:20:12.460Z,1138.00
2023-03-26T17:24:15.601Z,1158.00
2023-03-26T17:28:12.583Z,1177.00
2023-03-26T17:32:12.512Z,1176.00
2023-03-26T17:36:12.591Z,1361.00
2023-03-26T17:40:12.541Z,1407.00
2023-03-26T17:44:12.372Z,1283.00
2023-03-26T17:48:12.337Z,1357.00
2023-03-26T17:52:12.306Z,1291.00
2023-03-26T17:56:12.292Z,1346.00
2023-03-26T18:00:12.233Z,1417.00
2023-03-26T18:04:12.335Z,1294.00
2023-03-26T18:08:12.533Z,1238.00
2023-03-26T18:12:12.624Z,1404.00
2023-03-26T18:16:12.805Z,1191.00
2023-03-26T18:20:12.878Z,1283.00
2023-03-26T18:24:13.089Z,1101.00
2023-03-26T18:28:13.191Z,889.00
2023-03-26T18:32:13.414Z,833.00
2023-03-26T18:36:13.485Z,967.00
2023-03-26T18:40:13.724Z,1131.00
2023-03-26T18:44:13.801Z,1012.00
2023-03-26T18:48:13.940Z,987.00
2023-03-26T18:52:14.116Z,1062.00
2023-03-26T18:56:14.259Z,1107.00
2023-03-26T19:00:14.420Z,864.00
2023-03-26T19:04:14.559Z,900.00
2023-03-26T19:08:14.753Z,908.00
2023-03-26T19:12:14.897Z,722.00
2023-03-26T19:16:15.167Z,706.00
2023-03-26T19:20:15.198Z,946.00
2023-03-26T19:24:15.355Z,919.00
2023-03-26T19:28:15.543Z,953.00
2023-03-26T19:32:15.671Z,1100.00
2023-03-26T19:36:15.856Z,1131.00
2023-03-26T19:40:16.055Z,825.00
2023-03-26T19:44:16.190Z,928.00
2023-03-26T19:48:16.433Z,854.00
2023-03-26T19:52:16.511Z,751.00
2023-03-26T19:56:16.686Z,759.00
2023-03-26T20:00:16.879Z,891.00
2023-03-26T20:04:17.156Z,736.00
2023-03-26T20:08:17.257Z,640.00
2023-03-26T20:12:17.371Z,726.00
2023-03-26T20:16:17.584Z,659.00
2023-03-26T20:20:17.733Z,623.00
2023-03-26T20:24:17.957Z,659.00
2023-03-26T20:28:18.044Z,633.00
2023-03-26T20:32:18.258Z,596.00
2023-03-26T20:36:33.985Z,583.00
2023-03-26T20:40:19.405Z,578.00
2023-03-26T20:44:18.340Z,561.00
2023-03-26T20:48:18.406Z,520.00
2023-03-26T20:52:18.598Z,563.00
2023-03-26T20:56:18.766Z,555.00
2023-03-26T21:00:18.975Z,543.00
2023-03-26T21:04:19.215Z,538.00
2023-03-26T21:08:19.342Z,559.00
2023-03-26T21:12:19.514Z,529.00
2023-03-26T21:16:19.745Z,579.00
2023-03-26T21:20:19.900Z,623.00
2023-03-26T21:24:20.081Z,607.00
2023-03-26T21:28:22.052Z,529.00
2023-03-26T21:32:20.585Z,570.00
2023-03-26T21:36:20.794Z,540.00
2023-03-26T21:40:20.835Z,523.00
2023-03-26T21:44:21.041Z,551.00
2023-03-26T21:48:21.221Z,688.00
2023-03-26T21:52:21.421Z,573.00
2023-03-26T21:56:21.589Z,587.00
2023-03-26T22:00:23.735Z,596.00
2023-03-26T22:04:21.745Z,578.00
2023-03-26T22:08:21.712Z,547.00
2023-03-26T22:12:21.659Z,538.00
2023-03-26T22:16:21.725Z,517.00
2023-03-26T22:20:21.579Z,508.00
2023-03-26T22:24:21.541Z,505.00
2023-03-26T22:28:21.737Z,518.00
2023-03-26T22:32:21.939Z,504.00
2023-03-26T22:36:23.187Z,502.00
2023-03-26T22:40:22.330Z,540.00
2023-03-26T22:44:22.526Z,550.00
2023-03-26T22:48:22.702Z,540.00
2023-03-26T22:52:22.887Z,560.00
2023-03-26T22:56:23.125Z,614.00
2023-03-26T23:00:23.400Z,540.00
2023-03-26T23:04:31.413Z,553.00
2023-03-26T23:08:24.464Z,568.00
2023-03-26T23:12:23.412Z,563.00
2023-03-26T23:16:23.632Z,546.00
2023-03-26T23:20:23.795Z,566.00
2023-03-26T23:24:23.998Z,578.00
2023-03-26T23:28:24.187Z,524.00
2023-03-26T23:32:25.171Z,532.00
2023-03-26T23:36:24.618Z,555.00
2023-03-26T23:40:24.824Z,521.00
2023-03-26T23:44:25.060Z,574.00
2023-03-26T23:48:25.273Z,589.00
2023-03-26T23:52:25.473Z,543.00
2023-03-26T23:56:25.673Z,571.00
